createdAt,value
2018-10-11T00:00:15.733Z,23.93
2018-10-11T00:02:44.311Z,26.57
2018-10-11T00:05:12.974Z,26.90
2018-10-11T00:07:39.522Z,26.77
2018-10-11T00:10:06.298Z,27.77
2018-10-11T00:12:32.808Z,27.10
2018-10-11T00:14:59.209Z,29.20
2018-10-11T00:17:26.402Z,25.50
2018-10-11T00:19:52.873Z,26.80
2018-10-11T00:22:19.259Z,27.73
2018-10-11T00:24:45.732Z,25.83
2018-10-11T00:27:12.217Z,25.57
2018-10-11T00:29:38.508Z,24.87
2018-10-11T00:32:04.810Z,26.00
2018-10-11T00:34:31.128Z,25.20
2018-10-11T00:36:57.436Z,25.40
2018-10-11T00:39:23.810Z,27.60
2018-10-11T00:41:50.101Z,26.27
2018-10-11T00:44:16.422Z,25.30
2018-10-11T00:46:42.718Z,26.37
2018-10-11T00:49:09.013Z,26.33
2018-10-11T00:54:08.538Z,28.77
2018-10-11T00:56:34.898Z,25.97
2018-10-11T00:59:01.196Z,27.50
2018-10-11T01:01:27.513Z,26.23
2018-10-11T01:03:53.786Z,27.23
2018-10-11T01:06:20.076Z,29.77
2018-10-11T01:08:46.371Z,32.23
2018-10-11T01:11:12.726Z,28.30
2018-10-11T01:13:39.056Z,30.10
2018-10-11T01:16:05.333Z,30.33
2018-10-11T01:18:31.643Z,26.87
2018-10-11T01:20:57.946Z,28.40
2018-10-11T01:23:24.279Z,28.70
2018-10-11T01:25:51.291Z,30.07
2018-10-11T01:28:17.581Z,28.53
2018-10-11T01:30:43.887Z,28.00
2018-10-11T01:33:10.177Z,28.03
2018-10-11T01:35:36.446Z,29.27
2018-10-11T01:38:03.470Z,27.67
2018-10-11T01:40:29.813Z,29.00
2018-10-11T01:42:56.857Z,29.07
2018-10-11T01:45:23.930Z,29.03
2018-10-11T01:47:50.237Z,28.43
2018-10-11T01:50:17.270Z,28.23
2018-10-11T01:52:43.568Z,28.73
2018-10-11T01:55:09.869Z,29.93
2018-10-11T01:57:36.183Z,29.30
2018-10-11T02:00:02.467Z,28.37
2018-10-11T02:02:28.801Z,27.70
2018-10-11T02:04:55.126Z,29.40
2018-10-11T02:07:21.461Z,37.57
2018-10-11T02:09:47.753Z,29.93
2018-10-11T02:12:14.078Z,28.00
2018-10-11T02:14:41.101Z,29.23
2018-10-11T02:17:07.378Z,30.73
2018-10-11T02:19:33.721Z,28.83
2018-10-11T02:22:00.013Z,27.97
2018-10-11T02:24:26.306Z,27.33
2018-10-11T02:26:52.646Z,27.03
2018-10-11T02:29:18.962Z,31.37
2018-10-11T02:31:45.280Z,29.07
2018-10-11T02:34:11.622Z,29.03
2018-10-11T02:36:37.923Z,26.83
2018-10-11T02:39:04.959Z,28.43
2018-10-11T02:41:32.103Z,33.53
2018-10-11T02:43:59.144Z,28.47
2018-10-11T02:46:25.437Z,29.30
2018-10-11T02:48:51.760Z,31.33
2018-10-11T02:51:18.029Z,29.20
2018-10-11T02:53:44.377Z,29.83
2018-10-11T02:56:11.448Z,30.20
2018-10-11T02:59:11.594Z,31.97
2018-10-11T03:01:37.940Z,28.03
2018-10-11T03:04:04.958Z,29.73
2018-10-11T03:06:31.277Z,28.87
2018-10-11T03:08:58.290Z,31.47
2018-10-11T03:11:24.635Z,33.93
2018-10-11T03:13:50.938Z,32.23
2018-10-11T03:16:17.244Z,31.93
2018-10-11T03:18:43.542Z,33.50
2018-10-11T03:21:10.619Z,31.60
2018-10-11T03:23:36.925Z,34.90
2018-10-11T03:26:03.186Z,32.77
2018-10-11T03:28:29.457Z,31.03
2018-10-11T03:30:55.738Z,31.20
2018-10-11T03:33:22.047Z,33.03
2018-10-11T03:35:48.324Z,32.77
2018-10-11T03:38:14.631Z,33.67
2018-10-11T03:40:40.923Z,33.50
2018-10-11T03:43:07.204Z,34.97
2018-10-11T03:45:33.505Z,34.10
2018-10-11T03:47:59.786Z,35.13
2018-10-11T03:50:26.107Z,33.10
2018-10-11T03:52:52.383Z,32.83
2018-10-11T03:55:18.681Z,32.20
2018-10-11T03:57:44.942Z,34.83
2018-10-11T04:00:11.286Z,32.30
2018-10-11T04:02:38.390Z,33.20
2018-10-11T04:05:05.594Z,34.73
2018-10-11T04:07:31.955Z,33.17
2018-10-11T04:09:58.235Z,34.80
2018-10-11T04:12:24.625Z,35.20
2018-10-11T04:14:50.924Z,35.83
2018-10-11T04:17:18.406Z,35.13
2018-10-11T04:19:44.678Z,35.43
2018-10-11T04:24:43.092Z,35.93
2018-10-11T04:27:10.263Z,34.33
2018-10-11T04:29:37.393Z,37.80
2018-10-11T04:32:05.194Z,34.00
2018-10-11T04:34:32.140Z,34.70
2018-10-11T04:36:58.448Z,34.93
2018-10-11T04:39:25.513Z,35.80
2018-10-11T04:41:51.782Z,36.37
2018-10-11T04:44:18.848Z,34.33
2018-10-11T04:46:45.133Z,36.47
2018-10-11T04:49:11.397Z,35.37
2018-10-11T04:51:37.681Z,32.77
2018-10-11T04:54:04.005Z,33.57
2018-10-11T04:56:31.037Z,36.43
2018-10-11T04:58:57.378Z,36.23
2018-10-11T05:01:23.684Z,33.80
2018-10-11T05:03:49.954Z,35.03
2018-10-11T05:06:16.995Z,38.63
2018-10-11T05:08:43.293Z,39.27
2018-10-11T05:11:09.569Z,33.73
2018-10-11T05:13:36.640Z,35.93
2018-10-11T05:16:02.943Z,35.43
2018-10-11T05:18:30.191Z,35.47
2018-10-11T05:20:57.277Z,33.53
2018-10-11T05:23:23.592Z,36.37
2018-10-11T05:25:49.902Z,35.80
2018-10-11T05:28:16.920Z,36.20
2018-10-11T05:30:43.225Z,41.57
2018-10-11T05:33:09.551Z,35.57
2018-10-11T05:35:35.826Z,35.63
2018-10-11T05:38:02.148Z,35.97
2018-10-11T05:40:28.456Z,35.70
2018-10-11T05:42:54.786Z,40.37
2018-10-11T05:45:21.112Z,37.40
2018-10-11T05:47:47.479Z,36.43
2018-10-11T05:50:13.793Z,35.37
2018-10-11T05:52:40.097Z,34.30
2018-10-11T05:55:06.413Z,35.67
2018-10-11T05:57:32.802Z,34.97
2018-10-11T05:59:59.116Z,34.63
2018-10-11T06:02:25.499Z,34.77
2018-10-11T06:04:52.555Z,35.70
2018-10-11T06:07:19.621Z,34.50
2018-10-11T06:09:45.951Z,37.50
2018-10-11T06:12:12.282Z,33.97
2018-10-11T06:14:38.596Z,37.03
2018-10-11T06:17:04.924Z,35.13
2018-10-11T06:19:31.991Z,34.10
2018-10-11T06:21:58.308Z,35.03
2018-10-11T06:24:24.632Z,36.20
2018-10-11T06:26:50.938Z,33.23
2018-10-11T06:29:17.256Z,34.83
2018-10-11T06:31:43.542Z,35.37
2018-10-11T06:34:09.845Z,36.47
2018-10-11T06:36:37.003Z,33.87
2018-10-11T06:39:03.537Z,36.63
2018-10-11T06:41:29.833Z,36.30
2018-10-11T06:43:56.129Z,37.53
2018-10-11T06:46:22.459Z,35.97
2018-10-11T06:48:48.741Z,33.50
2018-10-11T06:51:15.081Z,33.67
2018-10-11T06:53:41.455Z,33.20
2018-10-11T06:56:07.776Z,35.37
2018-10-11T06:58:34.067Z,33.20
2018-10-11T07:01:00.350Z,34.43
2018-10-11T07:03:26.645Z,31.43
2018-10-11T07:05:52.976Z,31.13
2018-10-11T07:08:19.271Z,29.67
2018-10-11T07:10:45.570Z,31.23
2018-10-11T07:13:11.893Z,30.17
2018-10-11T07:15:38.928Z,31.30
2018-10-11T07:18:05.355Z,28.60
2018-10-11T07:20:31.596Z,28.23
2018-10-11T07:22:57.970Z,27.33
2018-10-11T07:25:24.249Z,28.40
2018-10-11T07:27:50.579Z,25.53
2018-10-11T07:30:16.870Z,27.97
2018-10-11T07:32:43.129Z,25.57
2018-10-11T07:35:09.624Z,26.23
2018-10-11T07:37:36.497Z,23.80
2018-10-11T07:40:02.808Z,22.90
2018-10-11T07:42:29.112Z,25.10
2018-10-11T07:44:55.417Z,23.90
2018-10-11T07:47:22.495Z,24.47
2018-10-11T07:49:48.771Z,25.90
2018-10-11T07:52:15.060Z,25.20
2018-10-11T07:54:41.398Z,25.93
2018-10-11T07:57:07.737Z,24.80
2018-10-11T07:59:34.048Z,24.77
2018-10-11T08:02:01.105Z,24.20
2018-10-11T08:04:27.392Z,26.00
2018-10-11T08:06:53.695Z,25.90
2018-10-11T08:09:20.034Z,24.30
2018-10-11T08:11:46.498Z,23.97
2018-10-11T08:14:12.657Z,25.20
2018-10-11T08:16:39.054Z,26.20
2018-10-11T08:19:05.375Z,26.80
2018-10-11T08:21:31.689Z,26.20
2018-10-11T08:23:58.024Z,25.00
2018-10-11T08:26:24.691Z,25.03
2018-10-11T08:28:50.662Z,24.80
2018-10-11T08:31:16.977Z,24.77
2018-10-11T08:33:44.013Z,25.03
2018-10-11T08:36:11.069Z,25.13
2018-10-11T08:38:38.172Z,25.57
2018-10-11T08:41:04.475Z,25.27
2018-10-11T08:43:30.808Z,24.97
2018-10-11T08:45:57.852Z,25.33
2018-10-11T08:48:24.159Z,24.67
2018-10-11T08:50:50.572Z,22.27
2018-10-11T08:53:16.841Z,24.50
2018-10-11T08:55:43.255Z,24.27
2018-10-11T08:58:10.263Z,27.13
2018-10-11T09:00:36.533Z,26.43
2018-10-11T09:03:04.690Z,24.17
2018-10-11T09:05:31.797Z,26.30
2018-10-11T09:07:58.122Z,24.30
2018-10-11T09:10:37.860Z,24.67
2018-10-11T09:12:51.646Z,23.67
2018-10-11T09:15:17.973Z,23.83
2018-10-11T09:17:44.255Z,25.00
2018-10-11T09:20:10.612Z,24.73
2018-10-11T09:22:37.597Z,23.73
2018-10-11T09:25:07.029Z,24.40
2018-10-11T09:30:11.814Z,24.63
2018-10-11T09:32:39.658Z,26.47
2018-10-11T09:35:06.899Z,29.03
2018-10-11T09:37:33.395Z,27.97
2018-10-11T09:40:00.607Z,25.63
2018-10-11T09:42:26.974Z,26.20
2018-10-11T09:44:53.248Z,24.77
2018-10-11T09:47:19.546Z,23.83
2018-10-11T09:49:45.862Z,42.17
2018-10-11T09:52:12.251Z,31.40
2018-10-11T09:54:38.549Z,27.87
2018-10-11T09:57:05.638Z,28.83
2018-10-11T09:59:31.943Z,34.50
2018-10-11T10:01:59.108Z,35.53
2018-10-11T10:04:25.399Z,36.90
2018-10-11T10:06:51.682Z,39.47
2018-10-11T10:09:18.037Z,105.93
2018-10-11T10:11:44.317Z,28.43
2018-10-11T10:14:11.347Z,29.10
2018-10-11T10:16:37.623Z,29.77
2018-10-11T10:19:04.018Z,33.57
2018-10-11T10:21:31.319Z,34.10
2018-10-11T10:24:00.089Z,27.33
2018-10-11T10:26:26.587Z,30.80
2018-10-11T10:28:53.075Z,28.00
2018-10-11T10:31:20.386Z,30.37
2018-10-11T10:33:46.878Z,28.70
2018-10-11T10:36:14.133Z,31.60
2018-10-11T10:38:40.692Z,27.60
2018-10-11T10:41:10.185Z,28.00
2018-10-11T10:43:37.499Z,27.70
2018-10-11T10:46:06.043Z,26.90
2018-10-11T10:48:33.435Z,28.33
2018-10-11T10:51:01.018Z,31.97
2018-10-11T10:53:28.337Z,29.00
2018-10-11T10:55:55.759Z,26.70
2018-10-11T10:58:23.166Z,25.10
2018-10-11T11:00:54.800Z,23.57
2018-10-11T11:03:21.628Z,21.57
2018-10-11T11:05:48.093Z,26.30
2018-10-11T11:08:16.421Z,24.87
2018-10-11T11:10:43.445Z,25.87
2018-10-11T11:13:10.780Z,26.63
2018-10-11T11:15:37.135Z,23.93
2018-10-11T11:18:03.444Z,25.60
2018-10-11T11:20:30.265Z,25.57
2018-10-11T11:22:56.617Z,25.93
2018-10-11T11:25:25.279Z,26.53
2018-10-11T11:27:51.643Z,27.83
2018-10-11T11:30:18.724Z,25.70
2018-10-11T11:32:44.984Z,23.93
2018-10-11T11:35:11.301Z,23.53
2018-10-11T11:37:37.570Z,22.47
2018-10-11T11:40:03.929Z,19.70
2018-10-11T11:42:30.189Z,22.90
2018-10-11T11:44:56.445Z,22.73
2018-10-11T11:47:22.720Z,22.53
2018-10-11T11:49:49.110Z,21.87
2018-10-11T11:52:15.398Z,21.50
2018-10-11T11:54:41.658Z,23.57
2018-10-11T11:57:08.709Z,23.70
2018-10-11T11:59:34.985Z,23.13
2018-10-11T12:02:01.296Z,23.80
2018-10-11T12:04:27.643Z,23.40
2018-10-11T12:06:53.978Z,23.47
2018-10-11T12:09:21.033Z,23.27
2018-10-11T12:11:47.309Z,18.83
2018-10-11T12:14:14.933Z,21.33
2018-10-11T12:16:41.354Z,20.90
2018-10-11T12:19:08.407Z,22.03
2018-10-11T12:21:37.166Z,21.67
2018-10-11T12:24:05.037Z,21.50
2018-10-11T12:26:31.326Z,22.67
2018-10-11T12:28:57.706Z,20.63
2018-10-11T12:31:23.916Z,21.00
2018-10-11T12:33:50.165Z,22.50
2018-10-11T12:36:16.474Z,20.97
2018-10-11T12:38:43.873Z,20.10
2018-10-11T12:41:10.372Z,20.63
2018-10-11T12:43:37.499Z,19.83
2018-10-11T12:46:03.833Z,21.97
2018-10-11T12:48:30.260Z,20.43
2018-10-11T12:50:56.553Z,20.33
2018-10-11T12:53:23.392Z,20.63
2018-10-11T12:55:49.752Z,19.03
2018-10-11T12:58:16.214Z,17.97
2018-10-11T13:00:42.616Z,18.27
2018-10-11T13:03:09.093Z,19.70
2018-10-11T13:05:35.357Z,20.67
2018-10-11T13:08:01.689Z,19.57
2018-10-11T13:10:28.177Z,21.60
2018-10-11T13:12:56.069Z,18.97
2018-10-11T13:15:22.115Z,20.57
2018-10-11T13:17:48.471Z,18.20
2018-10-11T13:20:15.081Z,18.93
2018-10-11T13:22:41.508Z,20.50
2018-10-11T13:25:12.851Z,21.03
2018-10-11T13:27:39.253Z,19.10
2018-10-11T13:30:06.126Z,22.43
2018-10-11T13:32:32.571Z,20.90
2018-10-11T13:34:58.914Z,18.33
2018-10-11T13:37:25.351Z,19.67
2018-10-11T13:39:54.793Z,19.23
2018-10-11T13:42:18.025Z,18.70
2018-10-11T13:44:44.514Z,19.27
2018-10-11T13:47:10.931Z,20.90
2018-10-11T13:49:37.990Z,19.33
2018-10-11T13:52:04.337Z,19.57
2018-10-11T13:54:30.696Z,19.40
2018-10-11T13:57:00.257Z,20.60
2018-10-11T13:59:23.448Z,20.53
2018-10-11T14:01:51.830Z,19.77
2018-10-11T14:04:18.888Z,20.83
2018-10-11T14:06:45.952Z,20.03
2018-10-11T14:09:15.690Z,19.33
2018-10-11T14:11:42.104Z,21.20
2018-10-11T14:14:08.369Z,19.77
2018-10-11T14:16:34.783Z,21.17
2018-10-11T14:19:01.109Z,19.77
2018-10-11T14:21:27.547Z,19.00
2018-10-11T14:23:54.053Z,20.77
2018-10-11T14:26:20.437Z,20.47
2018-10-11T14:28:46.721Z,19.57
2018-10-11T14:31:13.202Z,21.53
2018-10-11T14:33:39.562Z,20.03
2018-10-11T14:36:06.138Z,19.70
2018-10-11T14:38:34.642Z,21.57
2018-10-11T14:41:00.989Z,20.13
2018-10-11T14:43:27.370Z,19.83
2018-10-11T14:45:53.628Z,20.53
2018-10-11T14:48:21.679Z,21.20
2018-10-11T14:50:48.682Z,19.50
2018-10-11T14:53:14.944Z,21.57
2018-10-11T14:55:41.438Z,22.33
2018-10-11T14:58:08.603Z,21.87
2018-10-11T15:00:35.733Z,20.27
2018-10-11T15:03:02.189Z,22.70
2018-10-11T15:05:29.805Z,24.60
2018-10-11T15:07:57.750Z,22.13
2018-10-11T15:10:26.975Z,23.30
2018-10-11T15:12:53.906Z,21.30
2018-10-11T15:15:21.204Z,21.20
2018-10-11T15:17:47.561Z,20.53
2018-10-11T15:20:15.057Z,22.20
2018-10-11T15:22:41.944Z,22.13
2018-10-11T15:25:12.522Z,21.40
2018-10-11T15:27:39.065Z,21.47
2018-10-11T15:30:05.597Z,19.60
2018-10-11T15:32:32.105Z,20.30
2018-10-11T15:34:59.512Z,22.87
2018-10-11T15:37:25.947Z,22.70
2018-10-11T15:39:53.467Z,21.77
2018-10-11T15:42:20.021Z,25.17
2018-10-11T15:44:49.143Z,21.90
2018-10-11T15:47:18.429Z,20.13
2018-10-11T15:49:44.934Z,19.80
2018-10-11T15:52:13.111Z,20.20
2018-10-11T15:54:39.632Z,19.70
2018-10-11T15:57:07.311Z,17.90
2018-10-11T15:59:36.175Z,21.50
2018-10-11T16:02:07.591Z,19.93
2018-10-11T16:04:36.193Z,19.90
2018-10-11T16:07:05.478Z,18.50
2018-10-11T16:09:32.020Z,18.90
2018-10-11T16:11:58.744Z,19.23
2018-10-11T16:14:29.237Z,19.30
2018-10-11T16:16:57.768Z,18.73
2018-10-11T16:19:24.172Z,19.37
2018-10-11T16:21:50.510Z,18.67
2018-10-11T16:24:17.582Z,20.17
2018-10-11T16:26:43.993Z,19.23
2018-10-11T16:29:10.473Z,18.20
2018-10-11T16:31:36.905Z,18.23
2018-10-11T16:34:03.454Z,19.70
2018-10-11T16:36:30.530Z,19.13
2018-10-11T16:38:56.924Z,19.17
2018-10-11T16:41:23.366Z,19.27
2018-10-11T16:43:49.761Z,19.60
2018-10-11T16:46:16.139Z,21.00
2018-10-11T16:48:48.016Z,19.13
2018-10-11T16:51:16.793Z,18.87
2018-10-11T16:53:44.916Z,23.63
2018-10-11T16:56:12.033Z,28.70
2018-10-11T16:58:38.352Z,40.97
2018-10-11T17:01:06.129Z,42.43
2018-10-11T17:03:32.808Z,42.73
2018-10-11T17:06:03.834Z,31.13
2018-10-11T17:08:30.705Z,32.47
2018-10-11T17:10:58.501Z,31.37
2018-10-11T17:13:24.989Z,24.53
2018-10-11T17:15:51.637Z,41.20
2018-10-11T17:18:19.154Z,31.20
2018-10-11T17:20:46.291Z,32.40
2018-10-11T17:23:12.974Z,21.77
2018-10-11T17:25:39.459Z,24.43
2018-10-11T17:28:06.520Z,23.20
2018-10-11T17:30:33.961Z,21.07
2018-10-11T17:33:00.331Z,21.80
2018-10-11T17:35:26.966Z,20.93
2018-10-11T17:37:54.055Z,21.63
2018-10-11T17:40:21.219Z,21.23
2018-10-11T17:42:49.539Z,18.40
2018-10-11T17:45:16.583Z,20.43
2018-10-11T17:47:42.921Z,21.43
2018-10-11T17:50:11.895Z,19.80
2018-10-11T17:52:46.367Z,21.37
2018-10-11T17:55:12.723Z,19.90
2018-10-11T17:57:39.032Z,20.30
2018-10-11T18:00:05.349Z,20.47
2018-10-11T18:02:31.670Z,22.50
2018-10-11T18:04:58.759Z,21.37
2018-10-11T18:07:25.150Z,22.90
2018-10-11T18:09:51.453Z,24.20
2018-10-11T18:12:17.737Z,24.33
2018-10-11T18:14:44.967Z,26.80
2018-10-11T18:17:11.319Z,22.90
2018-10-11T18:19:43.405Z,24.60
2018-10-11T18:22:09.972Z,24.67
2018-10-11T18:24:36.268Z,23.67
2018-10-11T18:27:03.792Z,24.77
2018-10-11T18:29:30.560Z,24.83
2018-10-11T18:31:57.882Z,26.03
2018-10-11T18:34:24.224Z,25.90
2018-10-11T18:36:50.622Z,24.23
2018-10-11T18:39:16.909Z,24.10
2018-10-11T18:41:43.948Z,25.60
2018-10-11T18:44:10.237Z,23.30
2018-10-11T18:46:36.664Z,23.97
2018-10-11T18:49:03.189Z,22.57
2018-10-11T18:51:29.476Z,23.57
2018-10-11T18:53:55.861Z,21.17
2018-10-11T18:56:22.193Z,23.23
2018-10-11T18:58:48.583Z,23.90
2018-10-11T19:01:14.916Z,25.57
2018-10-11T19:03:41.966Z,24.90
2018-10-11T19:06:16.064Z,25.23
2018-10-11T19:08:42.342Z,26.07
2018-10-11T19:11:08.651Z,23.43
2018-10-11T19:13:35.144Z,22.83
2018-10-11T19:16:02.488Z,25.40
2018-10-11T19:18:29.033Z,27.40
2018-10-11T19:20:55.395Z,25.23
2018-10-11T19:23:22.505Z,26.37
2018-10-11T19:25:50.009Z,25.93
2018-10-11T19:28:17.726Z,27.10
2018-10-11T19:30:44.138Z,26.33
2018-10-11T19:33:10.468Z,26.00
2018-10-11T19:35:36.796Z,27.00
2018-10-11T19:38:03.150Z,29.00
2018-10-11T19:40:29.449Z,27.30
2018-10-11T19:42:55.785Z,32.67
2018-10-11T19:45:22.181Z,29.73
2018-10-11T19:47:48.504Z,37.33
2018-10-11T19:50:15.063Z,34.47
2018-10-11T19:52:43.171Z,33.73
2018-10-11T19:55:10.125Z,32.30
2018-10-11T19:57:36.495Z,31.23
2018-10-11T20:00:02.838Z,31.73
2018-10-11T20:02:29.810Z,29.00
2018-10-11T20:04:56.877Z,30.83
2018-10-11T20:07:25.578Z,33.57
2018-10-11T20:09:53.825Z,54.77
2018-10-11T20:12:20.613Z,28.83
2018-10-11T20:14:47.396Z,29.10
2018-10-11T20:17:14.549Z,29.33
2018-10-11T20:19:41.122Z,29.83
2018-10-11T20:22:07.739Z,32.03
2018-10-11T20:24:34.074Z,31.20
2018-10-11T20:27:01.420Z,33.03
2018-10-11T20:29:27.968Z,33.27
2018-10-11T20:31:55.069Z,30.60
2018-10-11T20:34:21.324Z,31.80
2018-10-11T20:36:47.624Z,30.40
2018-10-11T20:39:13.922Z,31.27
2018-10-11T20:41:40.225Z,29.53
2018-10-11T20:44:07.257Z,28.23
2018-10-11T20:46:34.089Z,28.67
2018-10-11T20:49:01.144Z,27.30
2018-10-11T20:51:27.512Z,27.47
2018-10-11T20:53:53.945Z,28.30
2018-10-11T20:56:20.253Z,27.07
2018-10-11T20:58:46.593Z,26.23
2018-10-11T21:01:13.665Z,27.43
2018-10-11T21:03:39.966Z,27.37
2018-10-11T21:06:06.232Z,27.53
2018-10-11T21:08:32.517Z,30.73
2018-10-11T21:10:58.801Z,30.20
2018-10-11T21:13:25.122Z,31.00
2018-10-11T21:15:51.403Z,29.33
2018-10-11T21:18:17.672Z,29.37
2018-10-11T21:20:43.951Z,29.17
2018-10-11T21:23:10.210Z,29.60
2018-10-11T21:25:37.258Z,28.07
2018-10-11T21:28:06.443Z,25.67
2018-10-11T21:30:33.255Z,28.07
2018-10-11T21:32:59.521Z,26.50
2018-10-11T21:35:25.824Z,28.13
2018-10-11T21:37:52.074Z,26.53
2018-10-11T21:40:18.422Z,24.50
2018-10-11T21:42:44.638Z,25.80
2018-10-11T21:45:10.943Z,27.03
2018-10-11T21:47:37.402Z,25.37
2018-10-11T21:50:04.592Z,28.70
2018-10-11T21:52:31.643Z,27.83
2018-10-11T21:54:57.976Z,27.00
2018-10-11T21:57:24.966Z,27.03
2018-10-11T21:59:51.295Z,25.53
2018-10-11T22:02:20.863Z,27.67
2018-10-11T22:04:47.513Z,27.50
2018-10-11T22:07:13.965Z,29.13
2018-10-11T22:09:40.477Z,26.33
2018-10-11T22:12:09.859Z,28.30
2018-10-11T22:14:36.910Z,30.53
2018-10-11T22:17:03.191Z,30.23
2018-10-11T22:19:29.442Z,27.40
2018-10-11T22:21:56.264Z,28.70
2018-10-11T22:24:22.594Z,27.27
2018-10-11T22:26:48.891Z,30.20
2018-10-11T22:29:15.196Z,29.90
2018-10-11T22:31:41.484Z,30.03
2018-10-11T22:34:07.775Z,31.27
2018-10-11T22:36:34.146Z,27.40
2018-10-11T22:39:00.435Z,28.23
2018-10-11T22:41:26.776Z,28.27
2018-10-11T22:43:53.842Z,33.50
2018-10-11T22:46:20.197Z,30.70
2018-10-11T22:48:46.509Z,29.60
2018-10-11T22:51:12.904Z,30.90
2018-10-11T22:53:39.189Z,30.27
2018-10-11T22:56:05.494Z,29.63
2018-10-11T22:58:31.851Z,30.53
2018-10-11T23:00:58.190Z,29.57
2018-10-11T23:03:24.487Z,28.13
2018-10-11T23:05:50.810Z,26.43
2018-10-11T23:08:17.817Z,25.77
2018-10-11T23:10:44.132Z,26.70
2018-10-11T23:13:10.418Z,27.10
2018-10-11T23:15:37.475Z,28.03
2018-10-11T23:18:03.760Z,26.73
2018-10-11T23:20:30.128Z,25.43
2018-10-11T23:22:57.157Z,25.20
2018-10-11T23:25:23.490Z,26.07
2018-10-11T23:27:49.788Z,25.23
2018-10-11T23:30:16.116Z,26.90
2018-10-11T23:32:42.451Z,24.47
2018-10-11T23:35:08.799Z,25.60
2018-10-11T23:37:35.100Z,25.40
2018-10-11T23:40:01.401Z,28.67
2018-10-11T23:42:28.421Z,27.37
2018-10-11T23:44:54.737Z,28.30
2018-10-11T23:47:21.045Z,26.60
2018-10-11T23:49:47.345Z,28.20
2018-10-11T23:52:14.375Z,25.90
2018-10-11T23:54:41.417Z,26.70
2018-10-11T23:57:08.445Z,26.33
2018-10-11T23:59:34.741Z,27.13
